Time;durP1;ratioP1;P1;durP2;ratioP2;P2;SDS_P1;SDS_P2;PMS_P1;PMS_P2;Temp;Humidity;BMP_temperature;BMP_pressure;BME280_temperature;BME280_humidity;BME280_pressure;Samples;Min_cycle;Max_cycle;Signal;HPM_P1;HPM_P2
2023/04/02 00:01:01;;;;;;;0.95;0.50;;;;;;;7.55;56.43;93037.19;5065279;28;20032;-79
2023/04/02 00:03:41;;;;;;;0.77;0.40;;;;;;;7.52;56.52;93031.75;5064975;28;20021;-78
2023/04/02 00:06:29;;;;;;;1.90;0.60;;;;;;;7.48;56.18;93036.09;5064932;28;20100;-78
2023/04/02 00:08:58;;;;;;;0.20;0.20;;;;;;;7.56;55.70;93044.03;5064772;28;20204;-78
2023/04/02 00:11:34;;;;;;;0.52;0.40;;;;;;;7.54;56.22;93051.53;5065053;28;20123;-78
2023/04/02 00:14:01;;;;;;;1.00;0.43;;;;;;;7.54;56.32;93042.81;5064899;28;20021;-79
2023/04/02 00:16:27;;;;;;;0.20;0.20;;;;;;;7.58;55.34;93030.47;5063715;28;20017;-78
2023/04/02 00:18:56;;;;;;;0.90;0.40;;;;;;;7.66;54.68;93037.66;5064798;28;20100;-78
2023/04/02 00:21:26;;;;;;;1.25;0.38;;;;;;;7.67;55.54;93039.19;5064819;28;20028;-78
2023/04/02 00:23:53;;;;;;;0.80;0.30;;;;;;;7.65;55.40;93033.41;5064682;28;20135;-78
2023/04/02 00:26:35;;;;;;;0.28;0.25;;;;;;;7.57;55.40;93042.16;5064783;28;20020;-78
2023/04/02 00:29:03;;;;;;;3.67;0.93;;;;;;;7.59;54.32;93045.28;5064342;28;20023;-78
2023/04/02 00:31:29;;;;;;;0.45;0.30;;;;;;;7.67;53.46;93012.66;5064510;28;20096;-77
2023/04/02 00:33:57;;;;;;;0.60;0.20;;;;;;;7.72;53.91;93009.88;5064464;28;20115;-78
2023/04/02 00:36:25;;;;;;;1.75;0.35;;;;;;;7.77;53.16;93033.56;5064790;28;20092;-78
2023/04/02 00:38:53;;;;;;;1.75;0.30;;;;;;;7.85;54.17;93024.03;5063217;28;20315;-78
2023/04/02 00:41:23;;;;;;;4.18;0.47;;;;;;;7.84;53.58;93055.09;5064433;28;20017;-77
2023/04/02 00:43:50;;;;;;;5.40;0.40;;;;;;;7.88;54.17;93020.00;5064172;28;20207;-78
2023/04/02 00:46:23;;;;;;;1.58;0.65;;;;;;;7.82;53.85;93030.75;5064150;28;20036;-78
2023/04/02 00:48:49;;;;;;;0.65;0.35;;;;;;;7.77;53.98;93033.56;5064012;28;20248;-78
2023/04/02 00:51:29;;;;;;;1.65;0.50;;;;;;;7.77;53.68;93024.81;5063940;28;20075;-78
2023/04/02 00:53:59;;;;;;;0.50;0.20;;;;;;;7.76;53.91;93020.63;5062819;28;20021;-79
2023/04/02 00:56:30;;;;;;;0.68;0.40;;;;;;;7.77;53.63;93020.28;5063933;28;20044;-78
2023/04/02 00:58:57;;;;;;;0.20;0.20;;;;;;;7.88;53.49;93022.63;5063977;28;20088;-79
2023/04/02 01:01:26;;;;;;;1.02;0.43;;;;;;;7.88;53.27;93018.09;5063845;28;20024;-79
2023/04/02 01:03:57;;;;;;;0.90;0.47;;;;;;;7.88;53.96;93025.28;5063923;28;20045;-79
2023/04/02 01:06:28;;;;;;;0.70;0.32;;;;;;;7.84;53.23;93023.25;5063816;28;20040;-79
2023/04/02 01:09:15;;;;;;;0.80;0.50;;;;;;;7.81;52.99;93023.09;5062634;28;20033;-78
2023/04/02 01:11:54;;;;;;;3.20;0.40;;;;;;;7.81;53.17;93023.88;5063917;28;20261;-77
2023/04/02 01:14:43;;;;;;;1.73;0.47;;;;;;;7.81;53.27;93012.50;5063529;28;20333;-76
2023/04/02 01:17:30;;;;;;;0.98;0.43;;;;;;;7.81;52.89;93020.44;5063660;28;20029;-77
2023/04/02 01:20:33;;;;;;;2.85;0.57;;;;;;;7.74;53.56;93017.50;5063470;28;20028;-79
2023/04/02 01:23:19;;;;;;;;;;;;;;;7.79;53.38;93020.00;5063960;28;20252;-77
2023/04/02 01:26:15;;;;;;;2.33;0.50;;;;;;;7.72;53.90;93027.66;5063618;28;19912;-78
2023/04/02 01:29:03;;;;;;;0.60;0.40;;;;;;;7.72;53.94;93017.81;5063006;28;20152;-79
2023/04/02 01:31:32;;;;;;;1.38;0.40;;;;;;;7.79;53.75;93033.25;5063227;28;20025;-78
2023/04/02 01:33:57;;;;;;;1.58;0.60;;;;;;;7.79;53.16;93023.41;5063273;28;20375;-78
2023/04/02 01:36:30;;;;;;;0.43;0.30;;;;;;;7.82;53.24;93036.06;5063334;28;20028;-77
2023/04/02 01:39:02;;;;;;;1.55;0.55;;;;;;;7.88;53.46;93038.56;5063082;28;20102;-78
2023/04/02 01:41:46;;;;;;;1.35;0.40;;;;;;;7.84;53.67;93031.22;5063292;28;20208;-77
2023/04/02 01:44:27;;;;;;;0.45;0.30;;;;;;;7.83;53.90;93024.34;5063068;28;20036;-77
2023/04/02 01:46:53;;;;;;;0.85;0.50;;;;;;;7.81;53.19;93026.53;5063337;28;20028;-78
2023/04/02 01:49:21;;;;;;;0.70;0.40;;;;;;;7.79;53.71;93014.69;5061967;28;20299;-78
2023/04/02 01:51:52;;;;;;;0.47;0.25;;;;;;;7.80;53.67;93017.03;5063131;28;20020;-77
2023/04/02 01:54:19;;;;;;;0.98;0.20;;;;;;;7.82;53.02;93009.53;5062967;28;20214;-77
2023/04/02 01:56:46;;;;;;;1.63;0.43;;;;;;;7.86;53.46;93020.28;5062748;28;20351;-79
2023/04/02 01:59:13;;;;;;;1.75;0.57;;;;;;;7.84;53.53;93014.53;5062969;28;20028;-78
2023/04/02 02:01:47;;;;;;;0.70;0.40;;;;;;;7.88;53.69;93017.34;5061346;28;20047;-77
2023/04/02 02:04:13;;;;;;;2.30;0.70;;;;;;;7.84;53.13;93007.34;5062866;28;20016;-77
2023/04/02 02:06:39;;;;;;;3.00;0.40;;;;;;;7.83;53.74;93010.31;5062894;28;20096;-77
2023/04/02 02:09:07;;;;;;;1.00;0.60;;;;;;;7.89;53.03;93016.22;5061541;28;20275;-77
2023/04/02 02:11:35;;;;;;;0.47;0.30;;;;;;;7.96;53.14;93019.19;5062754;28;20021;-77
2023/04/02 02:14:10;;;;;;;0.35;0.35;;;;;;;7.89;52.83;93024.19;5062767;28;20021;-77
2023/04/02 02:16:40;;;;;;;2.92;0.60;;;;;;;7.97;52.65;93024.16;5062701;28;20087;-78
2023/04/02 02:19:17;;;;;;;1.45;0.47;;;;;;;7.99;52.65;93023.84;5062523;28;20025;-78
2023/04/02 02:22:13;;;;;;;1.75;0.60;;;;;;;8.05;52.63;93033.19;5062654;28;20412;-79
2023/04/02 02:24:40;;;;;;;0.47;0.32;;;;;;;8.10;52.22;93022.41;5062539;28;20025;-78
2023/04/02 02:27:27;;;;;;;2.58;0.40;;;;;;;8.07;51.71;93025.69;5062624;28;20035;-79
2023/04/02 02:29:57;;;;;;;0.30;0.25;;;;;;;8.13;52.04;93029.72;5061427;28;20331;-78
2023/04/02 02:32:28;;;;;;;0.73;0.30;;;;;;;8.08;51.61;93032.56;5062713;28;20051;-78
2023/04/02 02:35:17;;;;;;;1.38;0.30;;;;;;;8.10;51.76;93043.66;5062623;28;20092;-78
2023/04/02 02:37:46;;;;;;;0.22;0.22;;;;;;;7.98;51.31;93028.38;5062582;28;20021;-78
2023/04/02 02:40:17;;;;;;;0.45;0.30;;;;;;;7.93;51.90;93027.75;5062343;28;20213;-77
2023/04/02 02:42:53;;;;;;;2.30;0.32;;;;;;;7.99;51.67;93021.97;5062503;28;20028;-77
2023/04/02 02:45:24;;;;;;;2.03;0.32;;;;;;;7.95;51.09;93028.22;5061298;28;20317;-77
2023/04/02 02:47:52;;;;;;;0.52;0.35;;;;;;;7.96;51.53;93016.53;5062542;28;20052;-77
2023/04/02 02:50:24;;;;;;;0.95;0.40;;;;;;;7.99;51.20;93029.16;5062509;28;20311;-78
2023/04/02 02:52:53;;;;;;;1.25;0.35;;;;;;;7.96;51.35;93024.50;5062342;28;20368;-78
2023/04/02 02:55:36;;;;;;;0.40;0.38;;;;;;;7.99;51.66;93024.63;5062524;28;20031;-78
2023/04/02 02:58:14;;;;;;;0.45;0.20;;;;;;;7.94;51.06;93016.84;5062117;28;20049;-78
2023/04/02 03:00:42;;;;;;;1.65;0.55;;;;;;;8.01;50.52;93021.66;5062437;28;20062;-78
2023/04/02 03:06:29;;;;;;;1.35;1.20;;;;;;;8.11;50.88;93021.31;5061373;28;20052;-78
2023/04/02 03:09:18;;;;;;;0.35;0.30;;;;;;;8.06;50.46;93024.16;5061493;28;20312;-77
2023/04/02 03:11:53;;;;;;;0.93;0.30;;;;;;;8.06;50.86;93041.94;5061398;28;20043;-78
2023/04/02 03:14:45;;;;;;;1.38;0.35;;;;;;;8.10;50.63;93024.28;5064704;28;20048;-78
2023/04/02 03:17:18;;;;;;;1.05;0.40;;;;;;;8.06;51.23;93021.50;5066104;28;20024;-77
2023/04/02 03:20:00;;;;;;;0.20;0.17;;;;;;;8.04;51.39;93021.03;5065707;28;20316;-77
2023/04/02 03:22:34;;;;;;;1.42;0.40;;;;;;;8.04;51.73;93029.00;5064625;28;20028;-77
2023/04/02 03:25:36;;;;;;;0.17;0.15;;;;;;;8.03;51.94;93057.38;5065955;28;20033;-78
2023/04/02 03:28:06;;;;;;;0.80;0.30;;;;;;;7.99;52.11;93045.06;5065531;28;20330;-77
2023/04/02 03:30:43;;;;;;;1.80;0.70;;;;;;;8.03;52.09;93044.13;5065655;28;20266;-77
2023/04/02 03:33:16;;;;;;;1.38;0.40;;;;;;;7.98;52.14;93035.56;5065610;28;20025;-77
2023/04/02 03:36:22;;;;;;;1.10;0.40;;;;;;;7.93;52.66;93043.69;5065592;28;20035;-78
2023/04/02 03:38:53;;;;;;;3.50;0.45;;;;;;;7.94;52.99;93047.91;5064195;28;20301;-77
2023/04/02 03:41:25;;;;;;;0.52;0.30;;;;;;;7.95;53.17;93044.16;5065324;28;20025;-77
2023/04/02 03:43:59;;;;;;;2.30;0.47;;;;;;;7.88;52.81;93038.56;5065800;28;20238;-77
2023/04/02 03:46:41;;;;;;;1.00;0.30;;;;;;;7.94;52.95;93045.25;5065651;28;20074;-78
2023/04/02 03:49:12;;;;;;;0.57;0.30;;;;;;;7.92;53.02;93047.44;5065219;28;20028;-77
2023/04/02 03:51:44;;;;;;;0.37;0.30;;;;;;;7.89;53.43;93056.03;5065405;28;20024;-77
2023/04/02 03:54:14;;;;;;;0.77;0.28;;;;;;;7.87;53.03;93042.28;5065253;28;20043;-78
2023/04/02 03:56:40;;;;;;;0.40;0.30;;;;;;;7.89;52.88;93045.41;5065126;28;20044;-77
2023/04/02 03:59:20;;;;;;;1.35;0.50;;;;;;;7.87;53.27;93045.72;5065047;28;20021;-77
2023/04/02 04:01:55;;;;;;;0.80;0.43;;;;;;;7.80;52.88;93040.13;5064928;28;20060;-77
2023/04/02 04:04:22;;;;;;;0.82;0.40;;;;;;;7.79;52.98;93049.94;5064341;28;20025;-77
2023/04/02 04:06:51;;;;;;;1.52;0.32;;;;;;;7.77;53.04;93041.50;5064998;28;20140;-78
2023/04/02 04:09:31;;;;;;;0.93;0.22;;;;;;;7.70;53.14;93049.19;5064851;28;20021;-77
2023/04/02 04:12:33;;;;;;;1.10;0.50;;;;;;;7.77;53.11;93049.47;5064920;28;20063;-77
2023/04/02 04:15:01;;;;;;;2.03;0.40;;;;;;;7.68;53.06;93046.06;5063369;28;20040;-77
2023/04/02 04:17:40;;;;;;;0.63;0.30;;;;;;;7.73;53.29;93048.53;5064766;28;20044;-77
2023/04/02 04:20:20;;;;;;;1.02;0.57;;;;;;;7.75;53.30;93051.66;5064702;28;20021;-77
2023/04/02 04:22:48;;;;;;;0.65;0.52;;;;;;;7.75;52.99;93049.00;5063566;28;20083;-77
2023/04/02 04:25:28;;;;;;;0.90;0.35;;;;;;;7.81;52.64;93061.00;5063813;28;20043;-77
2023/04/02 04:28:09;;;;;;;0.68;0.30;;;;;;;7.76;52.89;93055.13;5064812;28;20029;-76
2023/04/02 04:30:52;;;;;;;3.70;0.40;;;;;;;7.82;53.32;93067.13;5064559;28;20029;-76
2023/04/02 04:33:33;;;;;;;2.90;0.85;;;;;;;7.81;54.89;93071.63;5064570;28;20034;-76
2023/04/02 04:36:00;;;;;;;2.42;1.35;;;;;;;7.81;56.20;93076.94;5064505;28;20035;-77
2023/04/02 04:38:38;;;;;;;7.25;1.60;;;;;;;7.83;57.09;93072.09;5064254;28;20059;-76
2023/04/02 04:41:32;;;;;;;21.60;2.40;;;;;;;7.87;57.93;93087.41;5064389;28;20028;-76
2023/04/02 04:44:16;;;;;;;5.10;1.75;;;;;;;7.84;58.76;93073.66;5061564;28;20040;-76
2023/04/02 04:46:46;;;;;;;6.38;2.20;;;;;;;7.77;59.58;93091.91;5064301;28;20029;-77
2023/04/02 04:49:26;;;;;;;5.80;2.70;;;;;;;7.68;60.13;93082.44;5064303;28;20028;-76
2023/04/02 04:52:07;;;;;;;9.65;3.20;;;;;;;7.41;61.53;93090.38;5064200;28;20047;-78
2023/04/02 04:54:37;;;;;;;5.03;2.58;;;;;;;7.29;62.18;93098.19;5064137;28;20087;-76
2023/04/02 04:57:04;;;;;;;9.93;3.42;;;;;;;7.29;62.93;93084.91;5063969;28;20068;-76
2023/04/02 04:59:41;;;;;;;7.38;3.10;;;;;;;7.22;63.47;93092.53;5063954;28;20272;-77
2023/04/02 05:02:15;;;;;;;10.98;3.65;;;;;;;7.19;63.85;93099.25;5063745;28;20017;-77
2023/04/02 05:04:43;;;;;;;6.18;3.00;;;;;;;7.18;63.92;93112.81;5062700;28;20104;-77
2023/04/02 05:07:26;;;;;;;9.18;2.85;;;;;;;7.02;64.26;93094.72;5063740;28;20091;-77
2023/04/02 05:10:20;;;;;;;7.07;2.67;;;;;;;7.08;64.49;93086.59;5063919;28;20028;-78
2023/04/02 05:13:02;;;;;;;5.85;2.92;;;;;;;7.09;64.72;93096.91;5062614;28;20201;-78
2023/04/02 05:15:54;;;;;;;7.28;3.38;;;;;;;6.81;65.41;93091.06;5063515;28;20219;-78
2023/04/02 05:18:24;;;;;;;8.43;3.25;;;;;;;6.87;65.34;93089.81;5063482;28;20025;-78
2023/04/02 05:20:50;;;;;;;5.18;3.15;;;;;;;6.87;65.50;93092.47;5063652;28;20024;-78
2023/04/02 05:23:27;;;;;;;5.53;2.88;;;;;;;6.95;65.30;93104.97;5063593;28;20033;-78
2023/04/02 05:26:19;;;;;;;6.15;2.42;;;;;;;7.05;65.43;93108.44;5063566;28;20028;-78
2023/04/02 05:28:54;;;;;;;5.65;2.70;;;;;;;7.06;65.37;93096.72;5063378;28;20234;-78
2023/04/02 05:31:24;;;;;;;5.10;2.05;;;;;;;7.19;64.89;93103.78;5063289;28;20021;-78
2023/04/02 05:33:51;;;;;;;3.83;1.90;;;;;;;7.27;64.32;93110.19;5063423;28;20219;-77
2023/04/02 05:36:31;;;;;;;7.30;3.08;;;;;;;7.18;64.35;93110.91;5062493;28;20031;-79
2023/04/02 05:38:58;;;;;;;2.88;1.55;;;;;;;7.21;64.24;93114.84;5063181;28;20017;-78
2023/04/02 05:41:27;;;;;;;4.30;1.83;;;;;;;7.30;64.00;93107.66;5063296;28;20055;-79
2023/04/02 05:44:15;;;;;;;6.95;2.35;;;;;;;7.39;64.45;93119.06;5063341;28;20040;-79
2023/04/02 05:46:55;;;;;;;7.03;1.95;;;;;;;7.51;64.23;93120.31;5061985;28;20383;-79
2023/04/02 05:49:32;;;;;;;11.75;2.40;;;;;;;7.58;64.11;93113.47;5063253;28;20021;-78
2023/04/02 05:52:01;;;;;;;10.23;2.25;;;;;;;7.71;64.17;93118.94;5062959;28;20116;-78
2023/04/02 05:54:33;;;;;;;7.85;2.15;;;;;;;7.74;63.36;93124.41;5063074;28;20084;-78
2023/04/02 05:57:03;;;;;;;;;;;;;;;7.81;62.71;93113.31;5063200;28;20040;-78
2023/04/02 05:59:34;;;;;;;6.45;2.40;;;;;;;7.78;62.28;93124.56;5062822;28;19982;-78
2023/04/02 06:02:15;;;;;;;9.00;1.90;;;;;;;7.77;62.45;93123.75;5062954;28;20020;-78
2023/04/02 06:04:49;;;;;;;7.75;2.53;;;;;;;7.94;62.05;93119.56;5062750;28;20024;-78
2023/04/02 06:07:19;;;;;;;4.55;2.15;;;;;;;8.00;62.12;93131.56;5062701;28;20059;-78
2023/04/02 06:09:55;;;;;;;7.57;2.67;;;;;;;8.14;62.71;93132.16;5062745;28;20310;-78
2023/04/02 06:12:31;;;;;;;8.55;2.83;;;;;;;8.24;62.81;93126.53;5062625;28;20028;-78
2023/04/02 06:14:57;;;;;;;6.72;2.75;;;;;;;8.39;62.56;93130.53;5062637;28;20080;-78
2023/04/02 06:17:23;;;;;;;4.68;2.60;;;;;;;8.53;62.18;93133.03;5062892;28;20029;-78
2023/04/02 06:19:50;;;;;;;5.90;2.60;;;;;;;8.71;62.09;93122.34;5062490;28;20029;-78
2023/04/02 06:22:18;;;;;;;6.13;2.42;;;;;;;8.82;61.79;93128.88;5062564;28;20063;-78
2023/04/02 06:24:46;;;;;;;7.60;3.03;;;;;;;8.93;60.96;93119.44;5062583;28;20100;-78
2023/04/02 06:27:17;;;;;;;10.10;2.92;;;;;;;9.05;60.66;93126.72;5062297;28;20033;-78
2023/04/02 06:29:44;;;;;;;5.47;2.40;;;;;;;9.18;60.54;93135.56;5062441;28;20316;-78
2023/04/02 06:32:11;;;;;;;11.45;2.38;;;;;;;9.30;59.85;93141.00;5062498;28;20273;-78
2023/04/02 06:34:39;;;;;;;9.80;2.67;;;;;;;9.38;60.04;93124.19;5062676;28;20025;-78
2023/04/02 06:37:24;;;;;;;5.78;2.65;;;;;;;9.38;59.31;93129.53;5062449;28;20028;-78
2023/04/02 06:39:50;;;;;;;6.43;2.08;;;;;;;9.37;59.00;93127.94;5062344;28;20068;-78
2023/04/02 06:42:40;;;;;;;6.30;3.15;;;;;;;9.54;58.63;93131.59;5062403;28;20037;-78
2023/04/02 06:45:16;;;;;;;7.30;2.67;;;;;;;9.39;58.34;93136.38;5060718;28;20040;-78
2023/04/02 06:47:46;;;;;;;6.07;2.58;;;;;;;9.29;58.33;93131.44;5063716;28;20216;-78
2023/04/02 06:50:15;;;;;;;5.07;2.53;;;;;;;9.41;57.80;93147.47;5065148;28;20033;-78
2023/04/02 06:52:48;;;;;;;8.82;2.33;;;;;;;9.57;57.12;93138.94;5066319;28;20070;-78
2023/04/02 06:55:46;;;;;;;10.02;3.53;;;;;;;9.58;56.87;93140.50;5066423;28;20036;-78
2023/04/02 06:58:14;;;;;;;5.10;1.58;;;;;;;9.71;54.50;93141.31;5065605;28;20048;-79
2023/04/02 07:00:44;;;;;;;2.60;1.42;;;;;;;9.82;53.77;93145.16;5065951;28;20028;-79
2023/04/02 07:03:36;;;;;;;4.15;1.73;;;;;;;9.91;53.12;93150.41;5066293;28;20021;-79
2023/04/02 07:06:05;;;;;;;7.53;2.25;;;;;;;9.96;54.14;93144.91;5064964;28;20267;-79
2023/04/02 07:08:31;;;;;;;5.72;2.20;;;;;;;9.90;53.10;93151.53;5066060;28;20059;-78
2023/04/02 07:10:57;;;;;;;6.20;2.10;;;;;;;9.94;54.70;93153.22;5064776;28;20103;-79
2023/04/02 07:13:26;;;;;;;6.55;2.45;;;;;;;9.95;54.31;93146.81;5065913;28;20028;-78
2023/04/02 07:15:53;;;;;;;12.00;2.22;;;;;;;9.92;53.71;93158.09;5066056;28;20025;-79
2023/04/02 07:18:24;;;;;;;6.63;1.45;;;;;;;9.93;53.89;93153.53;5065777;28;20103;-78
2023/04/02 07:20:50;;;;;;;7.25;1.10;;;;;;;9.97;51.34;93167.75;5065783;28;20025;-79
2023/04/02 07:23:15;;;;;;;1.00;0.43;;;;;;;9.88;49.56;93159.06;5065674;28;20055;-78
2023/04/02 07:25:41;;;;;;;4.80;0.57;;;;;;;9.87;49.52;93162.81;5065734;28;20207;-79
2023/04/02 07:28:06;;;;;;;3.50;0.60;;;;;;;9.78;49.25;93168.22;5065591;28;20028;-79
2023/04/02 07:30:32;;;;;;;3.50;0.60;;;;;;;9.90;49.63;93167.50;5065546;28;20025;-79
2023/04/02 07:33:00;;;;;;;2.47;0.40;;;;;;;10.02;48.35;93167.56;5065643;28;20017;-78
2023/04/02 07:35:25;;;;;;;2.17;0.60;;;;;;;10.10;48.81;93177.38;5065553;28;20044;-79
2023/04/02 07:37:51;;;;;;;5.93;0.70;;;;;;;10.22;48.80;93169.44;5065634;28;20025;-79
2023/04/02 07:40:21;;;;;;;1.38;0.40;;;;;;;10.36;47.46;93179.84;5065659;28;20223;-79
2023/04/02 07:42:47;;;;;;;1.58;0.73;;;;;;;10.45;47.47;93185.06;5065602;28;20096;-79
2023/04/02 07:45:13;;;;;;;0.70;0.45;;;;;;;10.47;46.84;93176.75;5064246;28;20047;-79
2023/04/02 07:47:39;;;;;;;0.65;0.30;;;;;;;10.46;47.39;93181.28;5065526;28;20031;-78
2023/04/02 07:50:07;;;;;;;1.85;0.40;;;;;;;10.48;46.03;93173.75;5065246;28;20278;-79
2023/04/02 07:52:33;;;;;;;2.00;0.50;;;;;;;10.57;47.09;93182.44;5065215;28;20090;-78
2023/04/02 07:54:58;;;;;;;0.57;0.30;;;;;;;10.64;46.11;93179.22;5065271;28;20099;-79
2023/04/02 07:57:23;;;;;;;1.80;0.50;;;;;;;10.76;45.31;93170.50;5065224;28;20044;-78
2023/04/02 07:59:49;;;;;;;3.15;0.70;;;;;;;10.77;45.53;93159.50;5064234;28;20028;-79
2023/04/02 08:02:23;;;;;;;1.65;0.70;;;;;;;11.00;45.53;93167.09;5065172;28;20044;-79
2023/04/02 08:04:50;;;;;;;1.88;0.70;;;;;;;11.12;45.14;93177.00;5065154;28;20109;-79
2023/04/02 08:07:17;;;;;;;5.00;0.60;;;;;;;11.26;44.72;93180.13;5064954;28;20029;-78
2023/04/02 08:09:43;;;;;;;2.63;0.40;;;;;;;11.17;44.15;93176.75;5065092;28;20051;-79
2023/04/02 08:12:12;;;;;;;1.58;0.52;;;;;;;11.26;43.95;93193.44;5065070;28;20025;-79
2023/04/02 08:14:37;;;;;;;0.93;0.30;;;;;;;11.32;44.78;93181.44;5065035;28;20037;-78
2023/04/02 08:17:03;;;;;;;2.25;0.60;;;;;;;11.48;46.12;93194.09;5064871;28;20294;-78
2023/04/02 08:19:28;;;;;;;1.27;0.43;;;;;;;11.62;44.66;93191.88;5064853;28;20036;-79
2023/04/02 08:21:55;;;;;;;1.20;0.63;;;;;;;11.71;44.07;93179.19;5064946;28;20049;-79
2023/04/02 08:24:21;;;;;;;1.38;0.68;;;;;;;11.79;43.72;93191.63;5064944;28;20020;-78
2023/04/02 08:26:48;;;;;;;1.25;0.57;;;;;;;11.81;44.14;93188.63;5064506;28;20021;-77
2023/04/02 08:29:14;;;;;;;1.50;0.50;;;;;;;11.87;44.92;93191.84;5064447;28;20311;-77
2023/04/02 08:31:39;;;;;;;1.25;0.40;;;;;;;11.83;44.13;93187.19;5064440;28;20027;-77
2023/04/02 08:34:05;;;;;;;1.73;0.70;;;;;;;11.88;43.68;93199.50;5064337;28;20223;-77
2023/04/02 08:36:36;;;;;;;3.88;0.90;;;;;;;11.96;44.64;93184.50;5064237;28;20033;-77
2023/04/02 08:39:04;;;;;;;2.03;0.77;;;;;;;12.09;44.57;93194.06;5064422;28;20032;-77
2023/04/02 08:41:36;;;;;;;3.85;0.88;;;;;;;12.14;43.98;93196.47;5064292;28;20028;-78
2023/04/02 08:44:21;;;;;;;3.00;1.05;;;;;;;12.11;42.77;93188.34;5064212;28;20024;-77
2023/04/02 08:46:52;;;;;;;3.72;0.98;;;;;;;12.04;43.20;93191.59;5064215;28;20029;-77
2023/04/02 08:49:36;;;;;;;2.75;0.88;;;;;;;11.96;42.70;93197.88;5064060;28;20051;-77
2023/04/02 08:52:02;;;;;;;7.43;1.20;;;;;;;12.04;43.19;93196.94;5063908;28;20031;-77
2023/04/02 08:54:31;;;;;;;3.65;0.77;;;;;;;12.24;42.83;93185.31;5063840;28;20021;-77
2023/04/02 08:57:03;;;;;;;2.90;0.88;;;;;;;12.35;42.25;93187.50;5063970;28;20104;-78
2023/04/02 08:59:35;;;;;;;1.93;0.80;;;;;;;12.32;41.38;93206.91;5063685;28;20044;-78
2023/04/02 09:02:19;;;;;;;2.33;0.93;;;;;;;12.31;40.71;93191.97;5063934;28;20028;-77
2023/04/02 09:04:45;;;;;;;8.25;1.00;;;;;;;12.31;40.93;93202.66;5063826;28;20017;-77
2023/04/02 09:07:15;;;;;;;2.47;0.90;;;;;;;12.39;41.10;93191.06;5063748;28;20315;-77
2023/04/02 09:09:41;;;;;;;2.60;0.88;;;;;;;12.20;40.91;93192.44;5063942;28;20040;-77
2023/04/02 09:12:17;;;;;;;2.78;1.25;;;;;;;12.21;40.73;93195.91;5063756;28;20338;-77
2023/04/02 09:14:48;;;;;;;3.15;0.77;;;;;;;12.16;39.95;93196.91;5063694;28;20092;-77
2023/04/02 09:17:22;;;;;;;3.05;0.77;;;;;;;12.47;40.96;93200.81;5063807;28;20219;-78
2023/04/02 09:19:51;;;;;;;0.70;0.40;;;;;;;12.44;38.24;93190.81;5063404;28;20040;-77
2023/04/02 09:22:20;;;;;;;1.27;0.60;;;;;;;12.59;39.88;93182.06;5063632;28;20055;-77
2023/04/02 09:24:57;;;;;;;2.03;0.50;;;;;;;12.81;40.22;93199.44;5063543;28;20025;-77
2023/04/02 09:27:26;;;;;;;0.47;0.30;;;;;;;12.83;38.25;93194.53;5063593;28;20311;-77
2023/04/02 09:30:02;;;;;;;2.15;0.68;;;;;;;12.89;39.10;93187.03;5063625;28;20009;-78
2023/04/02 09:32:49;;;;;;;2.30;0.40;;;;;;;12.96;38.79;93194.44;5063412;28;20009;-78
2023/04/02 09:35:22;;;;;;;1.83;0.45;;;;;;;13.07;39.07;93170.63;5063149;28;20174;-78
2023/04/02 09:38:18;;;;;;;1.13;0.52;;;;;;;13.19;38.93;93184.72;5063530;28;20031;-78
2023/04/02 09:40:55;;;;;;;5.00;0.75;;;;;;;13.29;39.44;93179.97;5063272;28;20048;-78
2023/04/02 09:43:34;;;;;;;0.90;0.60;;;;;;;13.40;38.00;93176.44;5063328;28;20075;-78
2023/04/02 09:46:19;;;;;;;1.35;0.40;;;;;;;13.40;37.58;93184.47;5063173;28;20020;-78
2023/04/02 09:48:59;;;;;;;1.42;0.40;;;;;;;13.68;39.20;93172.88;5063150;28;20048;-79
2023/04/02 09:51:28;;;;;;;3.10;0.65;;;;;;;13.62;37.45;93163.56;5063095;28;20107;-78
2023/04/02 09:54:02;;;;;;;1.25;0.60;;;;;;;13.48;36.94;93172.03;5063287;28;20076;-78
2023/04/02 09:56:33;;;;;;;0.30;0.30;;;;;;;13.50;36.48;93174.38;5062776;28;20052;-79
2023/04/02 09:59:11;;;;;;;1.08;0.45;;;;;;;13.47;37.80;93164.34;5062772;28;20033;-78
2023/04/02 10:02:00;;;;;;;2.28;0.50;;;;;;;13.47;36.07;93161.69;5063051;28;20092;-79
2023/04/02 10:04:43;;;;;;;1.55;0.30;;;;;;;13.42;36.53;93178.78;5062970;28;20021;-79
2023/04/02 10:07:28;;;;;;;0.85;0.45;;;;;;;13.54;38.09;93172.56;5063019;28;20035;-79
2023/04/02 10:10:00;;;;;;;0.90;0.32;;;;;;;13.68;37.38;93170.19;5063030;28;20033;-79
2023/04/02 10:12:28;;;;;;;0.93;0.43;;;;;;;13.60;35.97;93157.78;5062786;28;20031;-79
2023/04/02 10:14:57;;;;;;;1.08;0.47;;;;;;;13.56;36.10;93163.03;5063158;28;20032;-79
2023/04/02 10:17:29;;;;;;;1.60;0.40;;;;;;;13.60;36.32;93165.81;5063002;28;20020;-79
2023/04/02 10:20:05;;;;;;;2.13;0.80;;;;;;;13.60;35.91;93152.44;5062963;28;20179;-79
2023/04/02 10:22:31;;;;;;;2.28;0.50;;;;;;;13.67;36.34;93147.22;5062140;28;20031;-79
2023/04/02 10:24:58;;;;;;;3.50;0.73;;;;;;;13.59;36.00;93156.97;5062823;28;20017;-79
2023/04/02 10:27:36;;;;;;;3.15;0.28;;;;;;;13.54;36.28;93156.50;5062914;28;20020;-79
2023/04/02 10:30:17;;;;;;;2.28;0.35;;;;;;;13.63;36.30;93149.03;5062823;28;20223;-79
2023/04/02 10:33:04;;;;;;;0.90;0.40;;;;;;;13.60;36.37;93152.44;5062832;28;20025;-79
2023/04/02 10:35:35;;;;;;;0.73;0.40;;;;;;;13.54;36.13;93153.81;5062602;28;20023;-79
2023/04/02 10:38:30;;;;;;;0.73;0.50;;;;;;;13.76;36.68;93152.38;5062560;28;20025;-79
2023/04/02 10:41:03;;;;;;;2.03;0.50;;;;;;;13.92;36.56;93153.13;5062670;28;20027;-79
2023/04/02 10:43:53;;;;;;;1.20;0.50;;;;;;;14.22;36.75;93147.97;5062390;28;20045;-79
2023/04/02 10:46:25;;;;;;;1.08;0.65;;;;;;;14.50;35.98;93152.34;5062575;28;20031;-79
2023/04/02 10:49:13;;;;;;;1.50;0.60;;;;;;;14.75;35.04;93147.47;5062580;28;20019;-79
2023/04/02 10:52:07;;;;;;;0.60;0.40;;;;;;;14.90;35.11;93158.44;5062299;28;20287;-79
2023/04/02 10:54:48;;;;;;;1.45;0.50;;;;;;;14.79;33.97;93150.22;5062396;28;20052;-79
2023/04/02 10:57:32;;;;;;;1.73;0.52;;;;;;;14.63;34.50;93148.41;5062112;28;20242;-79
2023/04/02 11:00:09;;;;;;;1.55;0.40;;;;;;;14.72;33.66;93136.69;5062215;28;20025;-78
2023/04/02 11:02:43;;;;;;;3.15;0.90;;;;;;;14.82;35.08;93146.81;5062395;28;20307;-79
2023/04/02 11:05:19;;;;;;;0.40;0.30;;;;;;;14.64;36.93;93136.53;5062209;28;20033;-79
2023/04/02 11:07:52;;;;;;;0.93;0.50;;;;;;;14.25;37.67;93136.56;5062504;28;20025;-79
2023/04/02 11:10:19;;;;;;;0.60;0.38;;;;;;;14.12;37.76;93131.69;5062266;28;20021;-79
2023/04/02 11:12:55;;;;;;;1.50;0.60;;;;;;;14.19;38.81;93137.97;5062145;28;20321;-79
2023/04/02 11:15:21;;;;;;;2.90;0.50;;;;;;;14.33;37.54;93131.31;5062497;28;20028;-79
2023/04/02 11:17:47;;;;;;;2.92;0.63;;;;;;;14.41;38.19;93141.03;5062222;28;20020;-78
2023/04/02 11:20:47;;;;;;;3.20;0.52;;;;;;;14.21;38.48;93140.31;5062101;28;20021;-78
2023/04/02 11:23:16;;;;;;;2.08;0.50;;;;;;;14.04;38.85;93146.84;5062005;28;20227;-78
2023/04/02 11:25:42;;;;;;;1.77;0.40;;;;;;;13.94;39.50;93150.06;5062025;28;20044;-78
2023/04/02 11:28:29;;;;;;;3.25;0.60;;;;;;;13.99;38.91;93145.22;5061962;28;20075;-78
2023/04/02 11:30:56;;;;;;;3.88;0.50;;;;;;;14.06;39.84;93131.19;5062043;28;20020;-77
2023/04/02 11:33:30;;;;;;;3.25;0.75;;;;;;;14.30;38.97;93129.34;5062355;28;20025;-78
2023/04/02 11:35:56;;;;;;;1.75;0.50;;;;;;;14.45;38.17;93139.25;5065027;28;20025;-78
2023/04/02 11:38:21;;;;;;;1.88;0.70;;;;;;;14.36;38.31;93122.59;5065654;28;20088;-78
2023/04/02 11:40:54;;;;;;;3.38;0.65;;;;;;;14.44;38.77;93122.34;5065469;28;20021;-78
2023/04/02 11:43:31;;;;;;;2.92;0.50;;;;;;;14.67;37.20;93116.28;5065167;28;20048;-78
2023/04/02 11:45:58;;;;;;;1.30;0.52;;;;;;;14.59;37.50;93133.38;5065816;28;20135;-78
2023/04/02 11:48:35;;;;;;;2.45;0.43;;;;;;;14.41;37.06;93133.00;5065557;28;20025;-78
2023/04/02 11:51:29;;;;;;;1.52;0.60;;;;;;;14.38;37.38;93117.63;5065420;28;20029;-78
2023/04/02 11:53:57;;;;;;;0.95;0.43;;;;;;;14.23;37.41;93128.09;5061344;28;20043;-78
2023/04/02 11:56:58;;;;;;;1.50;0.50;;;;;;;14.35;38.09;93131.75;5065357;28;20235;-78
2023/04/02 11:59:29;;;;;;;1.75;0.65;;;;;;;14.45;37.38;93112.44;5061673;28;20040;-78
2023/04/02 12:02:04;;;;;;;0.90;0.47;;;;;;;14.63;37.07;93121.59;5065465;28;20201;-77
2023/04/02 12:04:49;;;;;;;1.13;0.60;;;;;;;14.71;36.83;93119.03;5065059;28;20033;-77
2023/04/02 12:07:35;;;;;;;2.80;0.30;;;;;;;14.82;37.13;93125.38;5065114;28;20219;-78
2023/04/02 12:10:17;;;;;;;1.98;0.60;;;;;;;14.82;35.52;93123.44;5064998;28;20023;-78
2023/04/02 12:12:43;;;;;;;0.93;0.40;;;;;;;14.85;36.23;93120.03;5064799;28;20074;-77
2023/04/02 12:15:42;;;;;;;1.65;0.50;;;;;;;15.05;36.01;93123.44;5064902;28;20278;-78